createdAt,value
2023-01-04T00:02:13.722Z,4.14
2023-01-04T00:06:17.475Z,4.18
2023-01-04T00:10:17.829Z,4.26
2023-01-04T00:14:21.116Z,4.31
2023-01-04T00:18:21.297Z,4.38
2023-01-04T00:22:21.692Z,4.39
2023-01-04T00:26:25.004Z,4.45
2023-01-04T00:30:27.763Z,4.47
2023-01-04T00:34:27.982Z,4.56
2023-01-04T00:38:28.162Z,4.57
2023-01-04T00:42:28.433Z,4.65
2023-01-04T00:46:31.150Z,4.80
2023-01-04T00:50:31.385Z,4.79
2023-01-04T00:54:31.992Z,4.65
2023-01-04T00:58:32.153Z,4.49
2023-01-04T01:02:35.159Z,4.49
2023-01-04T01:06:36.737Z,4.54
2023-01-04T01:10:37.930Z,4.60
2023-01-04T01:14:38.111Z,4.83
2023-01-04T01:18:43.018Z,4.98
2023-01-04T01:22:43.592Z,4.91
2023-01-04T01:26:43.875Z,4.89
2023-01-04T01:30:45.644Z,4.93
2023-01-04T01:34:48.513Z,5.15
2023-01-04T01:38:49.174Z,5.21
2023-01-04T01:42:49.527Z,5.34
2023-01-04T01:46:55.495Z,5.43
2023-01-04T01:51:04.623Z,5.53
2023-01-04T01:55:12.161Z,5.40
2023-01-04T01:59:16.269Z,5.52
2023-01-04T02:03:21.225Z,5.55
2023-01-04T02:07:29.752Z,5.74
2023-01-04T02:11:30.369Z,5.75
2023-01-04T02:15:41.884Z,6.10
2023-01-04T02:20:20.812Z,6.18
2023-01-04T02:24:59.777Z,6.11
2023-01-04T02:29:32.085Z,6.10
2023-01-04T02:33:50.032Z,6.16
2023-01-04T02:38:01.177Z,6.38
2023-01-04T02:42:10.839Z,6.11
2023-01-04T02:46:22.241Z,5.97
2023-01-04T02:50:33.645Z,5.81
2023-01-04T02:54:37.215Z,6.38
2023-01-04T02:59:01.943Z,6.27
2023-01-04T03:03:33.105Z,6.21
2023-01-04T03:07:49.311Z,6.14
2023-01-04T03:12:08.668Z,6.18
2023-01-04T03:16:19.697Z,6.16
2023-01-04T03:20:23.687Z,6.24
2023-01-04T03:24:38.901Z,6.26
2023-01-04T03:29:00.036Z,6.28
2023-01-04T03:33:20.242Z,6.22
2023-01-04T03:37:27.015Z,6.23
2023-01-04T03:41:47.089Z,6.10
2023-01-04T03:46:09.975Z,6.12
2023-01-04T03:50:19.081Z,5.50
2023-01-04T03:54:26.368Z,6.09
2023-01-04T03:58:30.026Z,6.02
2023-01-04T04:02:34.035Z,6.03
2023-01-04T04:06:46.772Z,6.28
2023-01-04T04:10:46.885Z,6.13
2023-01-04T04:14:49.606Z,6.15
2023-01-04T04:18:50.361Z,6.29
2023-01-04T04:22:50.474Z,6.56
2023-01-04T04:26:50.683Z,6.55
2023-01-04T04:30:55.682Z,6.33
2023-01-04T04:34:55.818Z,6.70
2023-01-04T04:38:55.949Z,6.73
2023-01-04T04:42:56.128Z,6.86
2023-01-04T04:46:58.836Z,6.90
2023-01-04T04:50:59.093Z,7.03
2023-01-04T04:54:59.302Z,7.00
2023-01-04T04:58:59.734Z,6.83
2023-01-04T05:03:05.480Z,6.77
2023-01-04T05:07:12.033Z,6.85
2023-01-04T05:11:15.236Z,6.94
2023-01-04T05:15:15.375Z,6.82
2023-01-04T05:19:18.254Z,6.93
2023-01-04T05:23:21.102Z,6.87
2023-01-04T05:27:21.165Z,6.74
2023-01-04T05:31:21.411Z,6.85
2023-01-04T05:35:24.247Z,7.09
2023-01-04T05:39:24.417Z,7.25
2023-01-04T05:43:27.009Z,7.25
2023-01-04T05:47:28.231Z,7.33
2023-01-04T05:51:30.987Z,7.42
2023-01-04T05:55:31.211Z,7.26
2023-01-04T05:59:34.467Z,7.42
2023-01-04T06:03:39.360Z,7.43
2023-01-04T06:07:43.756Z,7.26
2023-01-04T06:11:44.019Z,7.35
2023-01-04T06:15:44.100Z,7.40
2023-01-04T06:19:44.216Z,7.30
2023-01-04T06:23:46.973Z,7.32
2023-01-04T06:27:47.135Z,7.37
2023-01-04T06:31:47.528Z,7.42
2023-01-04T06:35:47.651Z,7.48
2023-01-04T06:39:50.369Z,7.48
2023-01-04T06:43:50.510Z,7.71
2023-01-04T06:47:50.686Z,7.81
2023-01-04T06:51:50.778Z,7.82
2023-01-04T06:55:53.651Z,7.68
2023-01-04T06:59:53.812Z,7.48
2023-01-04T07:03:54.204Z,7.37
2023-01-04T07:07:54.469Z,7.37
2023-01-04T07:11:57.975Z,7.63
2023-01-04T07:15:58.136Z,7.50
2023-01-04T07:19:58.251Z,7.55
2023-01-04T07:23:58.625Z,7.70
2023-01-04T07:28:01.567Z,7.86
2023-01-04T07:32:01.789Z,8.01
2023-01-04T07:36:06.740Z,7.89
2023-01-04T07:40:08.402Z,8.04
2023-01-04T07:44:13.631Z,8.09
2023-01-04T07:48:13.723Z,8.27
2023-01-04T07:52:13.932Z,8.24
2023-01-04T07:56:18.742Z,8.43
2023-01-04T08:00:22.731Z,8.57
2023-01-04T08:04:32.745Z,8.88
2023-01-04T08:08:34.955Z,9.03
2023-01-04T08:12:35.000Z,8.89
2023-01-04T08:16:40.398Z,9.04
2023-01-04T08:20:40.530Z,9.37
2023-01-04T08:24:40.674Z,9.64
2023-01-04T08:28:41.170Z,9.87
2023-01-04T08:32:44.047Z,10.02
2023-01-04T08:36:50.863Z,9.94
2023-01-04T08:40:59.896Z,10.14
2023-01-04T08:45:04.436Z,10.41
2023-01-04T08:49:07.212Z,10.53
2023-01-04T08:53:07.294Z,10.47
2023-01-04T08:57:07.547Z,10.26
2023-01-04T09:01:10.914Z,10.41
2023-01-04T09:05:22.239Z,10.53
2023-01-04T09:09:23.374Z,10.45
2023-01-04T09:13:23.573Z,10.34
2023-01-04T09:17:24.476Z,10.38
2023-01-04T09:21:27.322Z,10.06
2023-01-04T09:25:27.641Z,10.15
2023-01-04T09:29:28.089Z,10.30
2023-01-04T09:33:55.762Z,10.02
2023-01-04T09:37:50.968Z,10.05
2023-01-04T09:41:59.599Z,10.32
2023-01-04T09:46:09.859Z,10.22
2023-01-04T09:50:19.195Z,10.26
2023-01-04T09:54:26.146Z,10.22
2023-01-04T09:58:33.631Z,10.31
2023-01-04T10:02:44.188Z,10.53
2023-01-04T10:06:44.723Z,10.53
2023-01-04T10:10:58.440Z,10.83
2023-01-04T10:15:17.495Z,10.92
2023-01-04T10:24:37.974Z,11.25
2023-01-04T10:29:17.434Z,11.20
2023-01-04T10:33:27.100Z,11.40
2023-01-04T10:37:33.311Z,11.30
2023-01-04T10:41:43.145Z,11.51
2023-01-04T10:45:59.244Z,11.37
2023-01-04T10:50:04.943Z,11.67
2023-01-04T10:54:20.328Z,11.53
2023-01-04T10:58:32.044Z,11.54
2023-01-04T11:02:47.105Z,11.87
2023-01-04T11:06:58.540Z,11.88
2023-01-04T11:11:08.464Z,11.97
2023-01-04T11:15:10.574Z,11.71
2023-01-04T11:19:14.165Z,11.66
2023-01-04T11:23:19.593Z,11.70
2023-01-04T11:27:27.252Z,11.69
2023-01-04T11:31:38.765Z,11.81
2023-01-04T11:35:48.461Z,11.77
2023-01-04T11:39:48.617Z,11.83
2023-01-04T11:44:01.743Z,12.12
2023-01-04T11:48:12.397Z,11.93
2023-01-04T11:52:34.245Z,12.21
2023-01-04T11:56:36.594Z,12.24
2023-01-04T12:00:37.034Z,11.92
2023-01-04T12:04:37.179Z,12.10
2023-01-04T12:08:41.908Z,12.04
2023-01-04T12:12:42.508Z,12.08
2023-01-04T12:16:54.957Z,11.90
2023-01-04T12:20:55.350Z,12.28
2023-01-04T12:25:01.093Z,12.26
2023-01-04T12:29:52.017Z,12.30
2023-01-04T12:33:55.290Z,12.33
2023-01-04T12:37:55.457Z,12.64
2023-01-04T12:42:27.012Z,12.71
2023-01-04T12:46:57.718Z,12.83
2023-01-04T12:51:34.219Z,13.04
2023-01-04T12:56:01.746Z,12.95
2023-01-04T13:00:07.924Z,13.04
2023-01-04T13:04:43.134Z,12.61
2023-01-04T13:08:45.852Z,12.82
2023-01-04T13:13:09.571Z,12.93
2023-01-04T13:17:21.003Z,12.93
2023-01-04T13:21:31.627Z,13.04
2023-01-04T13:25:31.858Z,13.40
2023-01-04T13:29:34.324Z,13.14
2023-01-04T13:33:37.178Z,13.42
2023-01-04T13:37:40.785Z,13.28
2023-01-04T13:41:41.112Z,13.09
2023-01-04T13:46:05.500Z,13.43
2023-01-04T13:50:32.602Z,13.20
2023-01-04T13:54:35.467Z,13.60
2023-01-04T13:58:37.568Z,13.25
2023-01-04T14:02:37.988Z,13.22
2023-01-04T14:06:46.232Z,13.34
2023-01-04T14:10:47.055Z,13.23
2023-01-04T14:14:58.150Z,13.38
2023-01-04T14:18:58.811Z,13.53
2023-01-04T14:23:03.088Z,13.46
2023-01-04T14:27:03.161Z,13.52
2023-01-04T14:31:33.385Z,13.49
2023-01-04T14:35:34.625Z,13.57
2023-01-04T14:39:39.407Z,13.79
2023-01-04T14:43:47.231Z,13.69
2023-01-04T14:47:47.456Z,13.75
2023-01-04T14:51:51.376Z,13.82
2023-01-04T14:55:54.828Z,13.51
2023-01-04T14:59:54.934Z,13.64
2023-01-04T15:03:55.158Z,13.63
2023-01-04T15:07:56.836Z,13.61
2023-01-04T15:12:00.821Z,13.81
2023-01-04T15:16:01.422Z,13.35
2023-01-04T15:20:01.749Z,13.37
2023-01-04T15:24:01.987Z,13.27
2023-01-04T15:28:04.724Z,13.56
2023-01-04T15:32:04.850Z,13.48
2023-01-04T15:36:07.807Z,13.52
2023-01-04T15:40:09.569Z,13.42
2023-01-04T15:44:13.484Z,12.98
2023-01-04T15:48:15.561Z,13.13
2023-01-04T15:52:15.799Z,12.80
2023-01-04T15:56:16.161Z,12.74
2023-01-04T16:00:20.677Z,13.07
2023-01-04T16:04:20.903Z,12.83
2023-01-04T16:08:21.171Z,12.72
2023-01-04T16:12:36.363Z,12.57
2023-01-04T16:16:39.239Z,12.54
2023-01-04T16:20:43.643Z,12.42
2023-01-04T16:29:03.970Z,12.52
2023-01-04T16:33:06.808Z,12.58
2023-01-04T16:37:06.897Z,12.49
2023-01-04T16:41:09.985Z,12.68
2023-01-04T16:45:12.239Z,12.79
2023-01-04T16:49:19.536Z,12.65
2023-01-04T16:53:19.590Z,13.05
2023-01-04T16:57:19.664Z,12.92
2023-01-04T17:01:23.923Z,12.71
2023-01-04T17:05:26.626Z,12.69
2023-01-04T17:09:27.138Z,12.84
2023-01-04T17:13:27.287Z,12.85
2023-01-04T17:17:27.577Z,12.99
2023-01-04T17:21:34.635Z,13.07
2023-01-04T17:25:35.737Z,12.87
2023-01-04T17:29:35.924Z,12.69
2023-01-04T17:33:36.469Z,13.00
2023-01-04T17:37:39.166Z,13.02
2023-01-04T17:41:39.675Z,12.87
2023-01-04T17:45:39.919Z,12.87
2023-01-04T17:49:40.559Z,12.93
2023-01-04T17:53:44.780Z,12.96
2023-01-04T17:57:45.110Z,12.81
2023-01-04T18:01:45.881Z,13.07
2023-01-04T18:06:07.103Z,12.93
2023-01-04T18:10:26.968Z,13.19
2023-01-04T18:14:36.340Z,13.23
2023-01-04T18:18:37.074Z,12.91
2023-01-04T18:22:37.827Z,13.25
2023-01-04T18:27:10.704Z,13.41
2023-01-04T18:31:00.988Z,13.35
2023-01-04T18:35:05.166Z,13.19
2023-01-04T18:39:05.529Z,13.17
2023-01-04T18:43:08.364Z,13.33
2023-01-04T18:47:08.945Z,13.19
2023-01-04T18:51:15.328Z,13.04
2023-01-04T18:55:17.238Z,13.18
2023-01-04T18:59:20.041Z,13.00
2023-01-04T19:03:20.242Z,13.28
2023-01-04T19:07:21.089Z,13.08
2023-01-04T19:11:21.315Z,13.08
2023-01-04T19:15:24.299Z,13.38
2023-01-04T19:19:24.751Z,13.28
2023-01-04T19:23:26.571Z,13.00
2023-01-04T19:27:26.820Z,13.25
2023-01-04T19:31:29.638Z,13.29
2023-01-04T19:35:29.807Z,13.15
2023-01-04T19:39:30.014Z,12.83
2023-01-04T19:43:30.823Z,13.16
2023-01-04T19:47:33.808Z,13.28
2023-01-04T19:51:34.011Z,13.02
2023-01-04T19:55:34.199Z,13.34
2023-01-04T19:59:34.398Z,13.45
2023-01-04T20:03:37.263Z,13.52
2023-01-04T20:07:37.417Z,13.38
2023-01-04T20:11:37.580Z,13.52
2023-01-04T20:15:40.143Z,13.29
2023-01-04T20:19:43.098Z,13.04
2023-01-04T20:23:43.806Z,13.17
2023-01-04T20:27:44.052Z,13.49
2023-01-04T20:31:45.909Z,13.70
2023-01-04T20:35:49.169Z,13.73
2023-01-04T20:39:49.847Z,13.53
2023-01-04T20:43:51.457Z,13.52
2023-01-04T20:47:51.657Z,13.27
2023-01-04T20:51:54.592Z,13.13
2023-01-04T20:55:55.789Z,13.55
2023-01-04T20:59:55.898Z,13.38
2023-01-04T21:03:56.054Z,13.19
2023-01-04T21:07:59.092Z,13.87
2023-01-04T21:12:04.909Z,13.88
2023-01-04T21:16:08.594Z,13.57
2023-01-04T21:20:10.523Z,13.33
2023-01-04T21:24:13.396Z,13.46
2023-01-04T21:28:14.975Z,14.02
2023-01-04T21:32:15.193Z,13.70
2023-01-04T21:36:18.190Z,13.83
2023-01-04T21:40:22.599Z,14.44
2023-01-04T21:44:23.292Z,13.56
2023-01-04T21:48:23.439Z,13.79
2023-01-04T21:52:23.716Z,13.76
2023-01-04T21:56:28.119Z,13.72
2023-01-04T22:00:28.260Z,13.53
2023-01-04T22:04:28.618Z,13.61
2023-01-04T22:08:28.877Z,13.90
2023-01-04T22:12:31.619Z,13.90
2023-01-04T22:16:32.101Z,13.72
2023-01-04T22:20:32.342Z,13.54
2023-01-04T22:24:37.787Z,13.81
2023-01-04T22:28:42.532Z,14.15
2023-01-04T22:32:42.701Z,13.94
2023-01-04T22:36:42.845Z,14.11
2023-01-04T22:40:44.847Z,13.70
2023-01-04T22:44:47.796Z,13.85
2023-01-04T22:48:48.863Z,14.32
2023-01-04T22:52:51.042Z,14.33
2023-01-04T22:56:51.587Z,14.56
2023-01-04T23:00:54.449Z,14.80
2023-01-04T23:04:54.736Z,14.49
2023-01-04T23:08:59.469Z,14.67
2023-01-04T23:12:59.583Z,14.51
2023-01-04T23:17:02.290Z,14.58
2023-01-04T23:21:02.625Z,14.46
2023-01-04T23:25:02.704Z,14.74
2023-01-04T23:29:04.261Z,14.20
2023-01-04T23:33:07.086Z,14.74
2023-01-04T23:37:07.231Z,14.89
2023-01-04T23:41:07.969Z,14.88
2023-01-04T23:45:10.081Z,14.64
2023-01-04T23:49:13.347Z,14.63
2023-01-04T23:53:13.402Z,14.70
2023-01-04T23:57:13.473Z,14.71
